createdAt,value
2023-01-29T00:01:57.571Z,22.83
2023-01-29T00:04:25.382Z,22.45
2023-01-29T00:06:54.596Z,25.10
2023-01-29T00:09:22.568Z,20.98
2023-01-29T00:11:50.283Z,23.50
2023-01-29T00:14:18.785Z,26.55
2023-01-29T00:16:46.495Z,23.15
2023-01-29T00:19:14.578Z,21.83
2023-01-29T00:21:42.312Z,24.02
2023-01-29T00:24:11.411Z,25.98
2023-01-29T00:26:40.161Z,34.75
2023-01-29T00:29:07.949Z,27.88
2023-01-29T00:31:36.045Z,23.98
2023-01-29T00:34:03.792Z,28.73
2023-01-29T00:36:31.520Z,26.50
2023-01-29T00:39:00.750Z,24.05
2023-01-29T00:41:48.098Z,27.17
2023-01-29T00:44:33.448Z,21.88
2023-01-29T00:47:01.085Z,21.50
2023-01-29T00:49:30.253Z,31.58
2023-01-29T00:52:15.568Z,29.48
2023-01-29T00:54:44.520Z,21.23
2023-01-29T00:57:13.557Z,22.02
2023-01-29T00:59:41.223Z,20.15
2023-01-29T01:02:26.213Z,26.10
2023-01-29T01:04:53.864Z,25.93
2023-01-29T01:07:21.995Z,24.77
2023-01-29T01:10:07.544Z,26.88
2023-01-29T01:12:36.583Z,26.90
2023-01-29T01:15:04.404Z,24.55
2023-01-29T01:17:32.141Z,27.50
2023-01-29T01:19:59.815Z,30.33
2023-01-29T01:22:27.473Z,20.02
2023-01-29T01:24:55.346Z,21.55
2023-01-29T01:27:23.754Z,34.85
2023-01-29T01:29:52.947Z,26.17
2023-01-29T01:32:20.637Z,29.73
2023-01-29T01:34:49.215Z,26.38
2023-01-29T01:37:16.896Z,25.25
2023-01-29T01:39:50.595Z,23.98
2023-01-29T01:42:18.383Z,28.27
2023-01-29T01:44:54.863Z,27.38
2023-01-29T01:47:25.650Z,28.92
2023-01-29T01:49:54.421Z,28.33
2023-01-29T01:52:22.345Z,25.27
2023-01-29T01:54:52.755Z,26.02
2023-01-29T01:57:25.009Z,32.28
2023-01-29T01:59:57.641Z,33.38
2023-01-29T02:02:43.218Z,30.50
2023-01-29T02:05:30.187Z,25.73
2023-01-29T02:08:16.352Z,29.92
2023-01-29T02:10:44.953Z,22.20
2023-01-29T02:13:16.228Z,41.30
2023-01-29T02:15:48.850Z,24.85
2023-01-29T02:18:18.009Z,32.58
2023-01-29T02:20:49.647Z,32.67
2023-01-29T02:23:27.245Z,29.50
2023-01-29T02:26:05.610Z,34.15
2023-01-29T02:28:39.027Z,36.03
2023-01-29T02:31:09.720Z,32.58
2023-01-29T02:33:42.858Z,26.17
2023-01-29T02:36:15.429Z,31.38
2023-01-29T02:38:46.866Z,28.92
2023-01-29T02:41:16.261Z,21.98
2023-01-29T02:43:47.654Z,38.35
2023-01-29T02:46:19.400Z,21.90
2023-01-29T02:48:50.693Z,25.60
2023-01-29T02:51:21.214Z,26.27
2023-01-29T02:53:53.692Z,32.33
2023-01-29T02:56:23.428Z,33.40
2023-01-29T02:58:55.874Z,30.08
2023-01-29T03:01:30.362Z,45.63
2023-01-29T03:04:00.113Z,36.63
2023-01-29T03:06:30.501Z,29.17
2023-01-29T03:09:00.260Z,34.47
2023-01-29T03:11:29.276Z,28.45
2023-01-29T03:13:59.893Z,44.28
2023-01-29T03:16:32.315Z,35.88
2023-01-29T03:19:02.708Z,29.58
2023-01-29T03:21:55.394Z,37.03
2023-01-29T03:24:45.420Z,28.48
2023-01-29T03:27:33.078Z,36.42
2023-01-29T03:30:20.622Z,30.30
2023-01-29T03:32:49.686Z,40.83
2023-01-29T03:35:21.107Z,34.17
2023-01-29T03:37:49.655Z,28.60
2023-01-29T03:40:17.801Z,31.00
2023-01-29T03:42:51.493Z,35.88
2023-01-29T03:45:23.037Z,32.00
2023-01-29T03:47:52.723Z,36.97
2023-01-29T03:50:26.324Z,35.58
2023-01-29T03:52:57.679Z,40.05
2023-01-29T03:55:30.293Z,34.70
2023-01-29T03:58:00.648Z,34.17
2023-01-29T04:00:31.187Z,35.65
2023-01-29T04:03:02.548Z,35.20
2023-01-29T04:05:32.672Z,39.95
2023-01-29T04:08:03.179Z,34.75
2023-01-29T04:10:30.868Z,31.42
2023-01-29T04:13:01.005Z,31.83
2023-01-29T04:15:32.082Z,31.70
2023-01-29T04:17:59.786Z,34.92
2023-01-29T04:20:27.852Z,33.33
2023-01-29T04:22:58.511Z,28.80
2023-01-29T04:25:29.101Z,40.90
2023-01-29T04:27:59.757Z,39.85
2023-01-29T04:30:31.804Z,33.35
2023-01-29T04:33:04.953Z,27.25
2023-01-29T04:35:33.626Z,32.15
2023-01-29T04:38:07.711Z,28.80
2023-01-29T04:40:40.560Z,29.13
2023-01-29T04:43:10.020Z,23.15
2023-01-29T04:45:40.643Z,30.25
2023-01-29T04:48:14.036Z,33.67
2023-01-29T04:50:45.572Z,28.20
2023-01-29T04:53:16.474Z,30.67
2023-01-29T04:55:46.701Z,28.73
2023-01-29T04:58:16.864Z,32.40
2023-01-29T05:00:45.572Z,23.23
2023-01-29T05:03:15.285Z,27.88
2023-01-29T05:05:43.907Z,33.33
2023-01-29T05:08:13.580Z,27.98
2023-01-29T05:10:42.521Z,31.73
2023-01-29T05:13:12.082Z,31.65
2023-01-29T05:15:40.867Z,25.30
2023-01-29T05:18:10.239Z,33.08
2023-01-29T05:20:40.003Z,27.92
2023-01-29T05:23:10.758Z,36.70
2023-01-29T05:25:41.184Z,31.30
2023-01-29T05:28:16.394Z,33.30
2023-01-29T05:30:46.576Z,29.90
2023-01-29T05:33:15.779Z,24.50
2023-01-29T05:35:45.059Z,31.40
2023-01-29T05:38:13.992Z,26.33
2023-01-29T05:40:41.874Z,27.42
2023-01-29T05:43:15.227Z,34.20
2023-01-29T05:45:42.868Z,36.38
2023-01-29T05:48:10.623Z,32.65
2023-01-29T05:50:38.343Z,34.50
2023-01-29T05:53:07.755Z,30.67
2023-01-29T05:55:35.513Z,41.67
2023-01-29T05:58:05.749Z,28.17
2023-01-29T06:00:33.861Z,29.92
2023-01-29T06:03:01.805Z,25.02
2023-01-29T06:05:29.510Z,36.72
2023-01-29T06:07:57.146Z,30.55
2023-01-29T06:10:26.167Z,37.58
2023-01-29T06:12:53.842Z,28.35
2023-01-29T06:15:22.080Z,32.92
2023-01-29T06:17:49.707Z,36.60
2023-01-29T06:20:17.742Z,32.47
2023-01-29T06:22:45.720Z,32.72
2023-01-29T06:25:13.423Z,40.25
2023-01-29T06:27:42.588Z,37.50
2023-01-29T06:30:11.035Z,29.33
2023-01-29T06:32:38.746Z,32.83
2023-01-29T06:35:06.900Z,26.25
2023-01-29T06:37:34.671Z,29.35
2023-01-29T06:40:02.502Z,27.40
2023-01-29T06:42:30.163Z,28.60
2023-01-29T06:45:04.553Z,41.78
2023-01-29T06:47:32.245Z,32.97
2023-01-29T06:49:59.894Z,32.13
2023-01-29T06:52:29.093Z,28.63
2023-01-29T06:54:57.629Z,33.45
2023-01-29T06:57:25.460Z,44.20
2023-01-29T06:59:53.122Z,32.72
2023-01-29T07:02:22.407Z,27.80
2023-01-29T07:04:50.099Z,39.25
2023-01-29T07:07:18.529Z,33.15
2023-01-29T07:09:46.198Z,26.13
2023-01-29T07:12:13.877Z,30.02
2023-01-29T07:14:41.589Z,34.83
2023-01-29T07:17:09.296Z,39.00
2023-01-29T07:19:38.317Z,32.33
2023-01-29T07:22:06.079Z,36.63
2023-01-29T07:24:33.950Z,36.45
2023-01-29T07:27:01.725Z,38.78
2023-01-29T07:29:29.498Z,33.60
2023-01-29T07:31:57.194Z,34.97
2023-01-29T07:34:26.471Z,37.33
2023-01-29T07:36:57.597Z,36.95
2023-01-29T07:39:25.273Z,34.25
2023-01-29T07:41:54.013Z,37.78
2023-01-29T07:44:23.103Z,34.25
2023-01-29T07:46:50.772Z,38.75
2023-01-29T07:49:18.476Z,40.97
2023-01-29T07:51:46.223Z,35.95
2023-01-29T07:54:15.507Z,35.28
2023-01-29T07:56:43.157Z,42.33
2023-01-29T07:59:10.938Z,41.13
2023-01-29T08:01:38.615Z,37.83
2023-01-29T08:04:06.320Z,33.65
2023-01-29T08:06:33.995Z,31.50
2023-01-29T08:09:02.291Z,30.98
2023-01-29T08:11:31.278Z,28.58
2023-01-29T08:13:59.078Z,38.30
2023-01-29T08:16:26.833Z,37.78
2023-01-29T08:18:55.842Z,40.10
2023-01-29T08:21:23.489Z,40.05
2023-01-29T08:23:51.134Z,37.40
2023-01-29T08:26:19.023Z,41.95
2023-01-29T08:28:48.493Z,37.63
2023-01-29T08:31:16.545Z,39.83
2023-01-29T08:33:44.403Z,44.97
2023-01-29T08:36:12.070Z,38.50
2023-01-29T08:38:39.759Z,40.90
2023-01-29T08:41:07.711Z,41.75
2023-01-29T08:43:36.939Z,46.70
2023-01-29T08:46:06.361Z,49.83
2023-01-29T08:48:34.123Z,43.72
2023-01-29T08:51:02.517Z,39.75
2023-01-29T08:53:30.320Z,39.47
2023-01-29T08:55:58.241Z,42.00
2023-01-29T08:58:25.980Z,40.92
2023-01-29T09:00:53.696Z,40.13
2023-01-29T09:03:22.739Z,43.55
2023-01-29T09:05:50.460Z,43.67
2023-01-29T09:08:18.119Z,38.47
2023-01-29T09:10:45.799Z,40.47
2023-01-29T09:13:13.451Z,36.75
2023-01-29T09:15:41.173Z,40.58
2023-01-29T09:18:09.015Z,34.90
2023-01-29T09:20:39.092Z,37.83
2023-01-29T09:23:07.191Z,27.85
2023-01-29T09:25:35.021Z,31.45
2023-01-29T09:28:02.843Z,38.22
2023-01-29T09:30:30.498Z,26.50
2023-01-29T09:32:58.141Z,27.40
2023-01-29T09:35:27.959Z,27.58
2023-01-29T09:37:57.010Z,38.75
2023-01-29T09:40:28.397Z,27.27
2023-01-29T09:42:58.925Z,29.27
2023-01-29T09:45:28.117Z,26.17
2023-01-29T09:47:59.042Z,27.33
2023-01-29T09:50:29.431Z,34.92
2023-01-29T09:52:59.946Z,26.75
2023-01-29T09:55:30.819Z,31.25
2023-01-29T09:57:59.486Z,32.85
2023-01-29T10:00:29.474Z,29.25
2023-01-29T10:03:08.773Z,26.48
2023-01-29T10:05:44.386Z,29.20
2023-01-29T10:08:20.601Z,34.47
2023-01-29T10:10:50.606Z,31.50
2023-01-29T10:13:22.390Z,37.15
2023-01-29T10:15:57.824Z,26.98
2023-01-29T10:18:43.091Z,30.27
2023-01-29T10:21:20.680Z,39.72
2023-01-29T10:23:51.698Z,34.78
2023-01-29T10:26:22.557Z,30.50
2023-01-29T10:28:51.486Z,29.27
2023-01-29T10:31:23.718Z,25.52
2023-01-29T10:34:02.341Z,30.58
2023-01-29T10:36:34.450Z,37.13
2023-01-29T10:39:03.594Z,29.75
2023-01-29T10:41:44.946Z,30.70
2023-01-29T10:44:21.147Z,35.58
2023-01-29T10:46:56.638Z,32.70
2023-01-29T10:52:09.551Z,28.88
2023-01-29T10:54:51.152Z,28.15
2023-01-29T10:57:24.305Z,29.05
2023-01-29T10:59:59.333Z,32.47
2023-01-29T11:02:29.719Z,32.72
2023-01-29T11:04:57.434Z,32.10
2023-01-29T11:07:27.796Z,29.73
2023-01-29T11:10:01.774Z,27.95
2023-01-29T11:12:32.146Z,27.88
2023-01-29T11:15:01.494Z,26.45
2023-01-29T11:17:29.198Z,29.30
2023-01-29T11:19:57.209Z,31.65
2023-01-29T11:22:25.449Z,32.78
2023-01-29T11:27:48.679Z,24.80
2023-01-29T11:30:17.696Z,22.77
2023-01-29T11:32:48.326Z,26.25
2023-01-29T11:35:22.672Z,19.35
2023-01-29T11:37:50.405Z,23.05
2023-01-29T11:40:34.393Z,21.92
2023-01-29T11:43:13.674Z,19.58
2023-01-29T11:45:41.447Z,23.00
2023-01-29T11:48:17.883Z,26.95
2023-01-29T11:50:45.941Z,27.08
2023-01-29T11:53:24.725Z,25.95
2023-01-29T11:55:53.095Z,29.63
2023-01-29T11:58:24.004Z,26.73
2023-01-29T12:00:52.542Z,23.75
2023-01-29T12:03:25.000Z,21.55
2023-01-29T12:05:57.873Z,28.50
2023-01-29T12:08:28.149Z,25.38
2023-01-29T12:11:08.408Z,26.95
2023-01-29T12:13:39.078Z,25.50
2023-01-29T12:16:11.710Z,34.00
2023-01-29T12:18:40.950Z,21.58
2023-01-29T12:21:13.483Z,27.08
2023-01-29T12:23:44.631Z,19.00
2023-01-29T12:26:15.991Z,22.40
2023-01-29T12:28:49.964Z,21.13
2023-01-29T12:31:24.567Z,24.45
2023-01-29T12:33:54.286Z,29.70
2023-01-29T12:36:24.603Z,25.25
2023-01-29T12:38:52.296Z,22.67
2023-01-29T12:41:29.604Z,26.02
2023-01-29T12:43:59.390Z,24.35
2023-01-29T12:46:29.228Z,22.52
2023-01-29T12:49:00.103Z,24.98
2023-01-29T12:51:31.117Z,22.90
2023-01-29T12:54:01.232Z,24.25
2023-01-29T12:56:30.936Z,23.38
2023-01-29T12:59:01.574Z,24.23
2023-01-29T13:01:32.393Z,20.75
2023-01-29T13:04:01.673Z,22.83
2023-01-29T13:06:30.717Z,28.17
2023-01-29T13:08:59.909Z,25.42
2023-01-29T13:11:31.047Z,23.85
2023-01-29T13:14:00.966Z,24.10
2023-01-29T13:16:31.372Z,22.15
2023-01-29T13:19:00.614Z,21.33
2023-01-29T13:21:30.398Z,23.23
2023-01-29T13:24:01.365Z,20.17
2023-01-29T13:26:29.477Z,21.88
2023-01-29T13:28:57.191Z,26.88
2023-01-29T13:31:28.536Z,21.58
2023-01-29T13:34:03.856Z,22.63
2023-01-29T13:36:32.063Z,25.35
2023-01-29T13:39:02.832Z,22.85
2023-01-29T13:41:38.106Z,20.52
2023-01-29T13:44:11.296Z,19.25
2023-01-29T13:46:42.793Z,25.08
2023-01-29T13:49:27.606Z,15.75
2023-01-29T13:51:55.615Z,28.02
2023-01-29T13:54:25.735Z,19.90
2023-01-29T13:57:00.749Z,26.02
2023-01-29T13:59:47.005Z,21.45
2023-01-29T14:02:23.408Z,21.27
2023-01-29T14:04:51.243Z,24.67
2023-01-29T14:07:37.682Z,20.38
2023-01-29T14:10:14.479Z,21.58
2023-01-29T14:12:46.169Z,22.55
2023-01-29T14:15:39.410Z,25.00
2023-01-29T14:18:15.208Z,18.77
2023-01-29T14:20:51.485Z,17.65
2023-01-29T14:23:25.053Z,23.20
2023-01-29T14:25:53.932Z,25.63
2023-01-29T14:28:23.743Z,22.98
2023-01-29T14:30:52.346Z,23.00
2023-01-29T14:33:29.050Z,30.63
2023-01-29T14:35:58.058Z,21.58
2023-01-29T14:38:28.173Z,21.75
2023-01-29T14:41:04.538Z,24.80
2023-01-29T14:43:32.195Z,22.52
2023-01-29T14:46:25.693Z,24.25
2023-01-29T14:48:54.801Z,25.45
2023-01-29T14:51:25.270Z,22.45
2023-01-29T14:53:56.121Z,23.70
2023-01-29T14:56:27.494Z,22.65
2023-01-29T14:58:57.985Z,21.05
2023-01-29T15:01:27.480Z,27.80
2023-01-29T15:04:00.980Z,28.00
2023-01-29T15:06:33.346Z,22.83
2023-01-29T15:09:05.772Z,20.52
2023-01-29T15:11:36.965Z,24.13
2023-01-29T15:14:24.983Z,22.45
2023-01-29T15:16:57.507Z,20.50
2023-01-29T15:19:29.605Z,24.00
2023-01-29T15:22:03.626Z,22.92
2023-01-29T15:24:31.346Z,17.67
2023-01-29T15:26:59.092Z,26.33
2023-01-29T15:29:28.267Z,21.27
2023-01-29T15:31:56.632Z,24.98
2023-01-29T15:34:24.590Z,27.50
2023-01-29T15:36:53.848Z,21.95
2023-01-29T15:39:22.783Z,32.05
2023-01-29T15:41:51.764Z,24.30
2023-01-29T15:44:20.610Z,21.70
2023-01-29T15:46:51.035Z,22.63
2023-01-29T15:49:20.929Z,23.27
2023-01-29T15:51:49.534Z,22.17
2023-01-29T15:54:19.164Z,23.35
2023-01-29T15:56:48.174Z,26.27
2023-01-29T15:59:18.483Z,26.63
2023-01-29T16:01:46.352Z,21.20
2023-01-29T16:04:16.222Z,24.23
2023-01-29T16:06:44.886Z,21.35
2023-01-29T16:09:17.002Z,23.38
2023-01-29T16:11:46.683Z,23.15
2023-01-29T16:14:15.594Z,26.50
2023-01-29T16:16:45.245Z,22.98
2023-01-29T16:19:22.325Z,24.27
2023-01-29T16:21:53.044Z,22.73
2023-01-29T16:24:22.543Z,25.80
2023-01-29T16:26:52.464Z,22.42
2023-01-29T16:29:25.773Z,23.75
2023-01-29T16:32:00.601Z,23.52
2023-01-29T16:34:30.334Z,22.08
2023-01-29T16:36:58.611Z,31.67
2023-01-29T16:39:27.858Z,32.88
2023-01-29T16:42:10.859Z,26.08
2023-01-29T16:44:41.161Z,25.85
2023-01-29T16:47:12.871Z,26.42
2023-01-29T16:49:45.089Z,27.05
2023-01-29T16:52:17.556Z,28.92
2023-01-29T16:54:45.411Z,24.20
2023-01-29T16:57:14.951Z,26.30
2023-01-29T16:59:44.254Z,28.02
2023-01-29T17:02:17.054Z,31.17
2023-01-29T17:04:46.961Z,21.98
2023-01-29T17:07:17.347Z,27.25
2023-01-29T17:09:45.118Z,25.33
2023-01-29T17:12:19.576Z,26.42
2023-01-29T17:14:55.547Z,32.67
2023-01-29T17:17:23.452Z,26.02
2023-01-29T17:19:51.388Z,28.42
2023-01-29T17:22:19.525Z,28.77
2023-01-29T17:24:51.410Z,23.65
2023-01-29T17:27:20.584Z,26.42
2023-01-29T17:29:48.541Z,23.23
2023-01-29T17:32:19.611Z,24.48
2023-01-29T17:34:47.673Z,28.10
2023-01-29T17:37:16.412Z,20.23
2023-01-29T17:39:45.470Z,29.33
2023-01-29T17:42:16.383Z,25.83
2023-01-29T17:44:44.127Z,25.23
2023-01-29T17:47:13.506Z,26.13
2023-01-29T17:49:42.970Z,24.73
2023-01-29T17:52:10.852Z,30.70
2023-01-29T17:54:38.613Z,24.27
2023-01-29T17:57:06.613Z,24.38
2023-01-29T17:59:34.678Z,26.70
2023-01-29T18:02:02.447Z,23.35
2023-01-29T18:04:30.111Z,28.05
2023-01-29T18:06:59.275Z,21.70
2023-01-29T18:09:28.046Z,23.42
2023-01-29T18:11:56.116Z,18.30
2023-01-29T18:14:24.572Z,22.90
2023-01-29T18:16:57.261Z,24.45
2023-01-29T18:19:27.414Z,24.48
2023-01-29T18:21:55.142Z,23.75
2023-01-29T18:24:26.674Z,25.15
2023-01-29T18:26:54.565Z,25.40
2023-01-29T18:29:22.296Z,25.92
2023-01-29T18:31:50.249Z,24.50
2023-01-29T18:34:20.591Z,25.60
2023-01-29T18:36:48.236Z,21.30
2023-01-29T18:39:16.052Z,26.23
2023-01-29T18:41:45.119Z,26.63
2023-01-29T18:44:13.056Z,23.70
2023-01-29T18:46:41.197Z,23.95
2023-01-29T18:49:08.896Z,25.38
2023-01-29T18:51:36.565Z,24.58
2023-01-29T18:54:05.063Z,29.27
2023-01-29T18:56:32.994Z,26.75
2023-01-29T18:59:02.102Z,27.02
2023-01-29T19:01:30.382Z,23.20
2023-01-29T19:04:00.302Z,30.73
2023-01-29T19:06:27.976Z,20.85
2023-01-29T19:08:55.894Z,29.83
2023-01-29T19:11:23.559Z,30.10
2023-01-29T19:13:51.286Z,27.05
2023-01-29T19:16:24.581Z,23.17
2023-01-29T19:18:53.489Z,27.60
2023-01-29T19:21:21.171Z,27.10
2023-01-29T19:23:51.611Z,26.45
2023-01-29T19:26:19.329Z,26.15
2023-01-29T19:28:47.028Z,26.55
2023-01-29T19:31:15.684Z,28.25
2023-01-29T19:33:44.843Z,28.63
2023-01-29T19:36:13.687Z,24.25
2023-01-29T19:38:44.692Z,26.65
2023-01-29T19:41:12.489Z,27.38
2023-01-29T19:43:41.984Z,28.02
2023-01-29T19:46:10.366Z,25.80
2023-01-29T19:48:38.096Z,24.08
2023-01-29T19:51:11.626Z,30.75
2023-01-29T19:53:40.880Z,23.90
2023-01-29T19:56:09.558Z,22.15
2023-01-29T19:58:37.467Z,27.10
2023-01-29T20:01:06.554Z,26.00
2023-01-29T20:03:34.427Z,29.30
2023-01-29T20:06:06.289Z,28.85
2023-01-29T20:08:35.735Z,25.85
2023-01-29T20:11:03.485Z,27.20
2023-01-29T20:13:31.199Z,26.63
2023-01-29T20:16:05.388Z,32.95
2023-01-29T20:18:33.461Z,25.15
2023-01-29T20:21:06.032Z,29.38
2023-01-29T20:23:38.171Z,25.90
2023-01-29T20:26:07.552Z,29.00
2023-01-29T20:28:36.893Z,30.98
2023-01-29T20:31:05.415Z,31.08
2023-01-29T20:33:33.680Z,31.80
2023-01-29T20:36:02.292Z,21.27
2023-01-29T20:38:31.853Z,29.33
2023-01-29T20:41:04.996Z,32.05
2023-01-29T20:43:32.826Z,30.02
2023-01-29T20:46:01.186Z,27.20
2023-01-29T20:48:29.060Z,30.13
2023-01-29T20:50:57.029Z,23.60
2023-01-29T20:53:24.689Z,31.70
2023-01-29T20:55:52.696Z,29.80
2023-01-29T20:58:22.092Z,26.98
2023-01-29T21:00:49.973Z,32.65
2023-01-29T21:03:17.729Z,24.42
2023-01-29T21:05:45.606Z,25.52
2023-01-29T21:08:13.376Z,32.42
2023-01-29T21:10:43.117Z,29.77
2023-01-29T21:13:11.505Z,33.30
2023-01-29T21:15:42.634Z,28.65
2023-01-29T21:18:10.339Z,31.17
2023-01-29T21:20:38.084Z,28.08
2023-01-29T21:23:07.209Z,29.83
2023-01-29T21:25:35.204Z,27.77
2023-01-29T21:28:04.379Z,25.98
2023-01-29T21:30:34.923Z,27.92
2023-01-29T21:33:04.306Z,32.35
2023-01-29T21:35:32.274Z,35.65
2023-01-29T21:38:00.149Z,28.15
2023-01-29T21:40:32.583Z,27.25
2023-01-29T21:43:11.603Z,28.92
2023-01-29T21:45:39.572Z,33.15
2023-01-29T21:48:09.231Z,26.75
2023-01-29T21:50:37.248Z,32.95
2023-01-29T21:53:04.974Z,30.05
2023-01-29T21:55:34.766Z,24.02
2023-01-29T21:58:02.415Z,27.75
2023-01-29T22:00:32.582Z,28.88
2023-01-29T22:03:00.385Z,24.10
2023-01-29T22:05:30.267Z,37.53
2023-01-29T22:07:58.056Z,28.50
2023-01-29T22:10:30.690Z,32.58
2023-01-29T22:13:00.424Z,29.10
2023-01-29T22:15:28.185Z,26.92
2023-01-29T22:17:55.873Z,32.53
2023-01-29T22:20:29.781Z,32.70
2023-01-29T22:23:00.523Z,27.23
2023-01-29T22:25:28.603Z,32.92
2023-01-29T22:27:56.509Z,30.05
2023-01-29T22:30:24.792Z,27.25
2023-01-29T22:32:52.460Z,31.30
2023-01-29T22:35:20.274Z,28.70
2023-01-29T22:37:48.013Z,33.17
2023-01-29T22:40:17.540Z,28.75
2023-01-29T22:43:10.265Z,29.55
2023-01-29T22:45:40.309Z,30.23
2023-01-29T22:48:08.264Z,32.45
2023-01-29T22:50:36.345Z,30.27
2023-01-29T22:53:04.072Z,28.65
2023-01-29T22:55:33.372Z,36.35
2023-01-29T22:58:01.308Z,35.78
2023-01-29T23:00:28.987Z,35.13
2023-01-29T23:02:56.726Z,31.58
2023-01-29T23:05:24.723Z,36.20
2023-01-29T23:07:52.408Z,35.45
2023-01-29T23:10:20.259Z,33.13
2023-01-29T23:12:49.323Z,34.88
2023-01-29T23:15:17.039Z,27.38
2023-01-29T23:17:45.236Z,32.38
2023-01-29T23:20:13.429Z,29.55
2023-01-29T23:22:41.110Z,28.83
2023-01-29T23:25:09.362Z,31.80
2023-01-29T23:27:36.070Z,28.50
2023-01-29T23:30:05.667Z,30.92
2023-01-29T23:32:33.875Z,29.80
2023-01-29T23:35:01.621Z,31.63
2023-01-29T23:37:30.075Z,36.03
2023-01-29T23:39:57.756Z,28.35
2023-01-29T23:42:25.526Z,34.75
2023-01-29T23:44:53.416Z,27.85
2023-01-29T23:47:22.465Z,28.30
2023-01-29T23:49:50.187Z,39.80
2023-01-29T23:52:17.997Z,27.33
2023-01-29T23:54:46.128Z,30.10
2023-01-29T23:57:15.469Z,26.73
2023-01-29T23:59:43.273Z,30.35
